Time;durP1;ratioP1;P1;durP2;ratioP2;P2;SDS_P1;SDS_P2;PMS_P1;PMS_P2;Temp;Humidity;BMP_temperature;BMP_pressure;BME280_temperature;BME280_humidity;BME280_pressure;Samples;Min_cycle;Max_cycle;Signal;HPM_P1;HPM_P2
2023/06/05 00:02:02;;;;;;;11.90;8.50;;;10.10;99.90;;;;;;5050763;28;20059;-70
2023/06/05 00:04:27;;;;;;;16.27;8.43;;;10.00;99.90;;;;;;5040949;28;20041;-70
2023/06/05 00:06:54;;;;;;;14.90;8.83;;;10.00;99.90;;;;;;5064212;28;20041;-71
2023/06/05 00:09:20;;;;;;;13.10;8.70;;;9.90;99.90;;;;;;5034789;28;20059;-70
2023/06/05 00:11:46;;;;;;;15.17;9.53;;;9.90;99.90;;;;;;5038287;28;20079;-71
2023/06/05 00:14:11;;;;;;;14.20;9.20;;;9.90;99.90;;;;;;5056132;28;20049;-70
2023/06/05 00:16:37;;;;;;;14.17;8.67;;;9.80;99.90;;;;;;5037742;28;20040;-71
2023/06/05 00:19:03;;;;;;;13.50;9.67;;;9.90;99.90;;;;;;5044515;28;20121;-71
2023/06/05 00:21:30;;;;;;;13.07;9.33;;;9.90;99.90;;;;;;5009851;28;20061;-70
2023/06/05 00:23:55;;;;;;;13.33;9.50;;;9.90;99.90;;;;;;5065007;28;20099;-71
2023/06/05 00:26:21;;;;;;;15.90;9.73;;;9.80;99.90;;;;;;5020126;28;20049;-72
2023/06/05 00:28:47;;;;;;;16.97;10.30;;;9.80;99.90;;;;;;5018413;28;20098;-72
2023/06/05 00:31:13;;;;;;;14.37;9.70;;;9.80;99.90;;;;;;5017755;28;20071;-72
2023/06/05 00:33:40;;;;;;;15.87;9.83;;;9.80;99.90;;;;;;5035645;28;20118;-72
2023/06/05 00:36:06;;;;;;;14.43;9.57;;;9.80;99.90;;;;;;5061838;28;20535;-71
2023/06/05 00:38:32;;;;;;;16.00;9.73;;;9.80;99.90;;;;;;5030839;28;20083;-71
2023/06/05 00:40:57;;;;;;;14.00;9.23;;;9.80;99.90;;;;;;5034448;28;20041;-71
2023/06/05 00:43:23;;;;;;;16.80;10.23;;;9.80;99.90;;;;;;5022086;28;20041;-70
2023/06/05 00:45:55;;;;;;;13.97;9.37;;;9.80;99.90;;;;;;5052894;28;20513;-71
2023/06/05 00:48:21;;;;;;;13.52;9.23;;;9.80;99.90;;;;;;5062728;28;20041;-71
2023/06/05 00:50:46;;;;;;;15.03;9.97;;;9.90;99.90;;;;;;5051940;28;20077;-70
2023/06/05 00:53:12;;;;;;;15.27;9.57;;;9.90;99.90;;;;;;5037044;28;20036;-70
2023/06/05 00:55:38;;;;;;;13.63;9.50;;;10.00;99.90;;;;;;5056920;28;20071;-70
2023/06/05 00:58:04;;;;;;;15.90;10.13;;;10.00;99.90;;;;;;5036903;28;20049;-71
2023/06/05 01:00:30;;;;;;;16.07;9.67;;;10.00;99.90;;;;;;5002829;28;20052;-70
2023/06/05 01:02:58;;;;;;;14.17;9.43;;;10.10;99.90;;;;;;5021957;28;20045;-71
2023/06/05 01:05:24;;;;;;;17.23;10.23;;;10.10;99.90;;;;;;5039529;28;20130;-71
2023/06/05 01:07:50;;;;;;;16.20;10.37;;;10.00;99.90;;;;;;5037482;28;20129;-71
2023/06/05 01:10:17;;;;;;;17.10;10.10;;;10.00;99.90;;;;;;5039702;28;20052;-71
2023/06/05 01:13:05;;;;;;;15.33;10.17;;;10.00;99.90;;;;;;5055307;28;20078;-70
2023/06/05 01:15:33;;;;;;;14.47;10.00;;;10.00;99.90;;;;;;5020457;28;20045;-71
2023/06/05 01:18:00;;;;;;;16.37;10.50;;;10.00;99.90;;;;;;5053345;28;20071;-71
2023/06/05 01:20:35;;;;;;;18.53;10.53;;;10.00;99.90;;;;;;5022095;28;20049;-71
2023/06/05 01:23:07;;;;;;;18.27;10.17;;;10.00;99.90;;;;;;5054600;28;20055;-71
2023/06/05 01:25:36;;;;;;;17.77;10.43;;;10.00;99.90;;;;;;5036929;28;20691;-71
2023/06/05 01:28:16;;;;;;;16.57;10.67;;;10.00;99.90;;;;;;5058312;28;20037;-71
2023/06/05 01:30:53;;;;;;;15.83;10.00;;;10.00;99.90;;;;;;5057660;28;20032;-71
2023/06/05 01:33:31;;;;;;;15.60;10.23;;;10.10;99.90;;;;;;5060709;28;20523;-70
2023/06/05 01:36:04;;;;;;;16.53;10.10;;;10.10;99.90;;;;;;5061393;28;20037;-71
2023/06/05 01:38:34;;;;;;;15.00;10.60;;;10.10;99.90;;;;;;5019891;28;20041;-71
2023/06/05 01:41:01;;;;;;;17.47;10.47;;;10.20;99.90;;;;;;5038312;28;20053;-70
2023/06/05 01:43:28;;;;;;;16.23;10.17;;;10.20;99.90;;;;;;5057442;28;20499;-71
2023/06/05 01:45:56;;;;;;;13.37;9.80;;;10.10;99.90;;;;;;5038466;28;20064;-71
2023/06/05 01:48:23;;;;;;;14.83;10.13;;;10.10;99.90;;;;;;5029293;28;20120;-71
2023/06/05 01:50:53;;;;;;;13.30;9.80;;;10.10;99.90;;;;;;5058782;28;20110;-71
2023/06/05 01:53:19;;;;;;;17.13;10.00;;;10.10;99.90;;;;;;5037095;28;20056;-70
2023/06/05 01:55:46;;;;;;;16.97;10.00;;;10.10;99.90;;;;;;5038534;28;20053;-70
2023/06/05 01:58:12;;;;;;;14.93;10.47;;;10.10;99.90;;;;;;5056238;28;20048;-70
2023/06/05 02:00:38;;;;;;;15.40;10.07;;;10.20;99.90;;;;;;5055246;28;20082;-70
2023/06/05 02:03:04;;;;;;;15.87;9.87;;;10.20;99.90;;;;;;5025440;28;20080;-70
2023/06/05 02:05:30;;;;;;;16.07;10.93;;;10.20;99.90;;;;;;5036767;28;20124;-71
2023/06/05 02:07:58;;;;;;;14.53;10.10;;;10.20;99.90;;;;;;5038157;28;20072;-70
2023/06/05 02:10:24;;;;;;;15.27;9.83;;;10.20;99.90;;;;;;5036021;28;20048;-71
2023/06/05 02:12:51;;;;;;;16.47;9.63;;;10.20;99.90;;;;;;5054241;28;20044;-71
2023/06/05 02:15:16;;;;;;;13.67;9.60;;;10.10;99.90;;;;;;5037378;28;20531;-70
2023/06/05 02:17:50;;;;;;;15.27;9.53;;;10.20;99.90;;;;;;5017508;28;20064;-71
2023/06/05 02:20:17;;;;;;;14.10;9.60;;;10.10;99.90;;;;;;5037706;28;20048;-70
2023/06/05 02:22:44;;;;;;;14.50;9.67;;;10.10;99.90;;;;;;5055511;28;20121;-71
2023/06/05 02:25:10;;;;;;;15.97;9.17;;;10.00;99.90;;;;;;5054325;28;20053;-71
2023/06/05 02:27:36;;;;;;;18.80;9.37;;;10.00;99.90;;;;;;5053139;28;20099;-70
2023/06/05 02:30:03;;;;;;;16.27;9.40;;;10.00;99.90;;;;;;5055386;28;20083;-70
2023/06/05 02:32:28;;;;;;;14.57;8.93;;;10.00;99.90;;;;;;5023147;28;20060;-71
2023/06/05 02:34:56;;;;;;;15.67;9.20;;;9.90;99.90;;;;;;5025630;28;20060;-71
2023/06/05 02:37:24;;;;;;;13.67;9.00;;;9.90;99.90;;;;;;5053815;28;20056;-71
2023/06/05 02:39:49;;;;;;;13.97;9.53;;;9.90;99.90;;;;;;5044514;28;20040;-70
2023/06/05 02:42:16;;;;;;;15.03;9.27;;;9.80;99.90;;;;;;5040480;28;20045;-71
2023/06/05 02:44:42;;;;;;;14.13;9.10;;;9.70;99.90;;;;;;5005032;28;20056;-71
2023/06/05 02:47:08;;;;;;;15.53;9.73;;;9.70;99.90;;;;;;5034822;28;20355;-71
2023/06/05 02:49:35;;;;;;;22.40;10.00;;;9.70;99.90;;;;;;5048116;28;20033;-71
2023/06/05 02:52:01;;;;;;;15.60;9.37;;;9.60;99.90;;;;;;5039401;28;20037;-71
2023/06/05 02:54:28;;;;;;;14.23;9.40;;;9.60;99.90;;;;;;5039084;28;20134;-70
2023/06/05 02:56:56;;;;;;;17.40;9.03;;;9.50;99.90;;;;;;5035369;28;20407;-71
2023/06/05 02:59:24;;;;;;;14.30;9.23;;;9.50;99.90;;;;;;5001907;28;20045;-71
2023/06/05 03:01:51;;;;;;;15.70;9.47;;;9.50;99.90;;;;;;5022302;28;20076;-70
2023/06/05 03:04:21;;;;;;;16.97;9.87;;;9.40;99.90;;;;;;5053826;28;20037;-71
2023/06/05 03:06:48;;;;;;;15.90;9.70;;;9.40;99.90;;;;;;5021194;28;20037;-70
2023/06/05 03:09:14;;;;;;;14.93;9.80;;;9.30;99.90;;;;;;5052365;28;20044;-71
2023/06/05 03:11:40;;;;;;;16.37;9.63;;;9.30;99.90;;;;;;5058252;28;20072;-71
2023/06/05 03:14:06;;;;;;;14.17;9.37;;;9.30;99.90;;;;;;5020722;28;20060;-70
2023/06/05 03:16:37;;;;;;;14.10;10.00;;;9.20;99.90;;;;;;5017576;28;20528;-70
2023/06/05 03:19:03;;;;;;;14.65;9.90;;;9.20;99.90;;;;;;5065208;28;20052;-71
2023/06/05 03:21:29;;;;;;;14.67;9.40;;;9.10;99.90;;;;;;5052877;28;20044;-70
2023/06/05 03:23:54;;;;;;;14.63;9.30;;;9.10;99.90;;;;;;5037136;28;20086;-71
2023/06/05 03:26:22;;;;;;;15.57;10.20;;;9.10;99.90;;;;;;5005019;28;20122;-70
2023/06/05 03:28:47;;;;;;;17.93;10.00;;;9.10;99.90;;;;;;5038153;28;20045;-71
2023/06/05 03:31:14;;;;;;;14.03;10.33;;;9.10;99.90;;;;;;5037716;28;20110;-71
2023/06/05 03:33:39;;;;;;;14.27;9.53;;;9.10;99.90;;;;;;5052157;28;20041;-71
2023/06/05 03:36:06;;;;;;;15.33;10.67;;;9.10;99.90;;;;;;5028432;28;20203;-71
2023/06/05 03:38:32;;;;;;;17.50;10.23;;;9.10;99.90;;;;;;5056385;28;20423;-71
2023/06/05 03:40:58;;;;;;;16.47;10.17;;;9.10;99.90;;;;;;5058660;28;20107;-71
2023/06/05 03:43:24;;;;;;;15.47;9.57;;;9.20;99.90;;;;;;5024067;28;20111;-71
2023/06/05 03:45:51;;;;;;;16.13;9.90;;;9.30;99.90;;;;;;5029707;28;20049;-70
2023/06/05 03:48:20;;;;;;;16.47;9.23;;;9.30;99.90;;;;;;5026244;28;20037;-70
2023/06/05 03:50:46;;;;;;;15.87;9.93;;;9.30;99.90;;;;;;5068026;28;20519;-72
2023/06/05 03:53:13;;;;;;;16.63;9.80;;;9.40;99.90;;;;;;5025737;28;20037;-72
2023/06/05 03:55:44;;;;;;;16.47;9.53;;;9.40;99.90;;;;;;5038373;28;20056;-72
2023/06/05 03:58:15;;;;;;;17.05;8.93;;;9.40;99.90;;;;;;5016946;28;20049;-72
2023/06/05 04:00:44;;;;;;;16.43;10.17;;;9.50;99.90;;;;;;5038447;28;20056;-70
2023/06/05 04:03:11;;;;;;;16.63;9.23;;;9.40;99.90;;;;;;5033938;28;20051;-70
2023/06/05 04:05:38;;;;;;;16.53;9.60;;;9.40;99.90;;;;;;5038656;28;20041;-70
2023/06/05 04:08:09;;;;;;;17.97;9.60;;;9.50;99.90;;;;;;5032651;28;20634;-71
2023/06/05 04:10:35;;;;;;;19.47;10.13;;;9.50;99.90;;;;;;5041407;28;20060;-70
2023/06/05 04:13:01;;;;;;;15.50;9.57;;;9.50;99.90;;;;;;5050185;28;20103;-70
2023/06/05 04:15:27;;;;;;;15.30;9.67;;;9.50;99.90;;;;;;5034699;28;20056;-70
2023/06/05 04:17:53;;;;;;;18.47;10.03;;;9.50;99.90;;;;;;5050499;28;20045;-70
2023/06/05 04:20:20;;;;;;;18.87;9.93;;;9.60;99.90;;;;;;5001668;28;20109;-70
2023/06/05 04:22:46;;;;;;;15.23;9.80;;;9.60;99.90;;;;;;5053268;28;20213;-70
2023/06/05 04:25:12;;;;;;;17.50;10.10;;;9.70;99.90;;;;;;5051535;28;20107;-70
2023/06/05 04:27:39;;;;;;;16.17;9.97;;;9.70;99.90;;;;;;5055168;28;20086;-71
2023/06/05 04:30:08;;;;;;;16.10;9.93;;;9.80;99.90;;;;;;5056186;28;20430;-70
2023/06/05 04:32:37;;;;;;;15.37;9.20;;;9.90;99.90;;;;;;5006401;28;20033;-70
2023/06/05 04:35:11;;;;;;;14.20;9.47;;;9.90;99.90;;;;;;5006040;28;20213;-71
2023/06/05 04:37:38;;;;;;;15.03;9.77;;;9.90;99.90;;;;;;5056380;28;20033;-69
2023/06/05 04:40:06;;;;;;;17.03;10.03;;;10.00;99.90;;;;;;5039872;28;20123;-69
2023/06/05 04:42:36;;;;;;;16.50;9.57;;;10.00;99.90;;;;;;5055562;28;20064;-69
2023/06/05 04:45:04;;;;;;;15.17;9.80;;;10.10;99.90;;;;;;5056906;28;20075;-69
2023/06/05 04:47:31;;;;;;;14.97;9.27;;;10.10;99.90;;;;;;5038375;28;20131;-70
2023/06/05 04:50:05;;;;;;;16.20;9.37;;;10.10;99.90;;;;;;5023178;28;20052;-70
2023/06/05 04:52:32;;;;;;;14.43;8.87;;;10.20;99.90;;;;;;5053078;28;20289;-69
2023/06/05 04:55:01;;;;;;;13.40;9.43;;;10.20;99.90;;;;;;5022926;28;20415;-71
2023/06/05 04:57:27;;;;;;;17.20;9.33;;;10.20;99.90;;;;;;5055664;28;20092;-70
2023/06/05 04:59:54;;;;;;;14.13;8.73;;;10.30;99.90;;;;;;5055723;28;20048;-70
2023/06/05 05:02:20;;;;;;;12.70;8.57;;;10.30;99.90;;;;;;5038979;28;20044;-71
2023/06/05 05:04:46;;;;;;;14.03;8.23;;;10.40;99.90;;;;;;5037994;28;20048;-71
2023/06/05 05:07:22;;;;;;;13.03;8.23;;;10.40;99.90;;;;;;5018891;28;20100;-71
2023/06/05 05:09:49;;;;;;;15.00;8.60;;;10.40;99.90;;;;;;5038691;28;20051;-72
2023/06/05 05:12:14;;;;;;;14.70;8.17;;;10.50;99.90;;;;;;5058083;28;20060;-71
2023/06/05 05:14:40;;;;;;;10.57;8.13;;;10.60;99.90;;;;;;5058773;28;20114;-70
2023/06/05 05:17:06;;;;;;;14.43;8.37;;;10.70;99.90;;;;;;5024580;28;20048;-71
2023/06/05 05:19:32;;;;;;;11.07;7.70;;;10.70;99.90;;;;;;5022391;28;20112;-71
2023/06/05 05:21:58;;;;;;;12.20;7.67;;;10.80;99.90;;;;;;5033977;28;20572;-71
2023/06/05 05:24:24;;;;;;;13.43;8.23;;;10.90;99.90;;;;;;5056991;28;20098;-71
2023/06/05 05:26:51;;;;;;;12.37;8.23;;;10.90;99.90;;;;;;5024807;28;20048;-71
2023/06/05 05:29:17;;;;;;;11.97;8.13;;;10.90;99.90;;;;;;5034312;28;20037;-71
2023/06/05 05:31:44;;;;;;;13.40;8.20;;;11.00;99.90;;;;;;5038289;28;20042;-71
2023/06/05 05:34:10;;;;;;;12.43;8.20;;;11.10;99.90;;;;;;5039195;28;20351;-71
2023/06/05 05:36:36;;;;;;;11.77;8.30;;;11.20;99.90;;;;;;5009210;28;20564;-71
2023/06/05 05:39:02;;;;;;;12.40;8.00;;;11.30;99.90;;;;;;5031541;28;20037;-70
2023/06/05 05:41:28;;;;;;;10.03;7.87;;;11.40;99.90;;;;;;5061828;28;20048;-71
2023/06/05 05:43:54;;;;;;;11.90;8.33;;;11.40;99.90;;;;;;5022670;28;20144;-71
2023/06/05 05:46:20;;;;;;;13.07;7.93;;;11.50;99.90;;;;;;5057143;28;20072;-71
2023/06/05 05:48:46;;;;;;;9.83;6.90;;;11.60;99.90;;;;;;5068864;28;20060;-72
2023/06/05 05:51:12;;;;;;;10.50;7.23;;;11.70;99.90;;;;;;5021269;28;20056;-72
2023/06/05 05:53:37;;;;;;;10.90;7.00;;;11.80;99.90;;;;;;5043190;28;20090;-71
2023/06/05 05:56:04;;;;;;;10.63;7.13;;;11.90;99.90;;;;;;5040221;28;20110;-71
2023/06/05 05:58:31;;;;;;;9.23;7.20;;;11.90;99.90;;;;;;5036253;28;20105;-72
2023/06/05 06:00:59;;;;;;;11.33;6.63;;;12.10;99.90;;;;;;5022334;28;20595;-72
2023/06/05 06:03:26;;;;;;;11.03;6.17;;;12.10;99.90;;;;;;5036915;28;20735;-71
2023/06/05 06:05:52;;;;;;;9.73;6.40;;;12.30;99.90;;;;;;5041551;28;20053;-72
2023/06/05 06:08:18;;;;;;;11.33;7.20;;;12.40;99.90;;;;;;5025148;28;20049;-72
2023/06/05 06:10:45;;;;;;;9.00;6.40;;;12.40;99.90;;;;;;5058512;28;20041;-72
2023/06/05 06:13:11;;;;;;;10.40;6.63;;;12.50;99.90;;;;;;5020656;28;20235;-72
2023/06/05 06:15:38;;;;;;;9.73;7.00;;;12.60;99.90;;;;;;5038815;28;20033;-72
2023/06/05 06:18:05;;;;;;;9.90;6.80;;;12.70;99.90;;;;;;5034905;28;20037;-71
2023/06/05 06:20:33;;;;;;;6.93;5.40;;;12.50;99.90;;;;;;5047535;28;20053;-72
2023/06/05 06:22:59;;;;;;;7.40;4.83;;;12.50;99.90;;;;;;5052964;28;20045;-71
2023/06/05 06:25:28;;;;;;;7.17;5.07;;;12.50;99.90;;;;;;5062948;28;20083;-70
2023/06/05 06:27:55;;;;;;;9.25;5.18;;;12.60;99.90;;;;;;5021023;28;20059;-71
2023/06/05 06:30:21;;;;;;;5.87;4.43;;;12.80;99.90;;;;;;5033985;28;20056;-71
2023/06/05 06:32:47;;;;;;;6.38;4.28;;;12.90;99.90;;;;;;5059070;28;20135;-72
2023/06/05 06:35:16;;;;;;;5.72;4.53;;;13.00;99.90;;;;;;5013440;28;20051;-72
2023/06/05 06:37:42;;;;;;;4.70;3.95;;;13.10;99.90;;;;;;5044375;28;20079;-72
2023/06/05 06:40:09;;;;;;;7.15;4.13;;;13.20;99.90;;;;;;5023842;28;20083;-72
2023/06/05 06:42:35;;;;;;;6.25;4.38;;;13.30;99.90;;;;;;5020357;28;20044;-72
2023/06/05 06:45:01;;;;;;;5.82;4.28;;;13.50;99.90;;;;;;5018793;28;20072;-72
2023/06/05 06:47:27;;;;;;;4.75;4.00;;;13.50;99.90;;;;;;5034217;28;20041;-72
2023/06/05 06:49:53;;;;;;;6.75;4.70;;;13.60;99.90;;;;;;5028143;28;20633;-72
2023/06/05 06:52:20;;;;;;;6.15;4.35;;;13.70;99.90;;;;;;5019507;28;20049;-72
2023/06/05 06:54:49;;;;;;;8.70;4.30;;;13.80;99.90;;;;;;5016443;28;20091;-73
2023/06/05 06:57:15;;;;;;;5.43;4.22;;;13.80;99.90;;;;;;5039393;28;20079;-72
2023/06/05 06:59:41;;;;;;;7.18;4.55;;;13.90;99.90;;;;;;5037490;28;20050;-72
2023/06/05 07:02:15;;;;;;;7.30;4.50;;;13.90;99.90;;;;;;5042005;28;20083;-73
2023/06/05 07:04:42;;;;;;;6.65;4.20;;;14.00;99.90;;;;;;5034525;28;20055;-72
2023/06/05 07:07:12;;;;;;;5.97;4.35;;;14.00;99.90;;;;;;5023985;28;20496;-72
2023/06/05 07:09:39;;;;;;;6.15;4.22;;;14.00;99.90;;;;;;5035141;28;20045;-72
2023/06/05 07:12:06;;;;;;;5.65;4.20;;;14.00;99.90;;;;;;5039682;28;20043;-72
2023/06/05 07:14:33;;;;;;;5.15;3.80;;;14.10;99.90;;;;;;5038640;28;20110;-72
2023/06/05 07:17:00;;;;;;;5.00;3.97;;;14.20;99.90;;;;;;5017507;28;20045;-72
2023/06/05 07:19:30;;;;;;;5.75;3.70;;;14.30;99.90;;;;;;5039891;28;20044;-71
2023/06/05 07:21:57;;;;;;;5.43;3.92;;;14.50;99.90;;;;;;5025679;28;20072;-71
2023/06/05 07:24:26;;;;;;;6.38;4.18;;;14.40;99.90;;;;;;5017201;28;20041;-72
2023/06/05 07:26:55;;;;;;;5.82;3.90;;;14.60;99.90;;;;;;5044197;28;20041;-71
2023/06/05 07:29:22;;;;;;;5.65;3.72;;;14.60;99.90;;;;;;5024031;28;20047;-71
2023/06/05 07:31:48;;;;;;;5.30;3.47;;;14.70;99.90;;;;;;5008989;28;20033;-71
2023/06/05 07:34:14;;;;;;;6.40;3.75;;;14.70;99.90;;;;;;5034177;28;20266;-71
2023/06/05 07:36:41;;;;;;;4.60;3.95;;;14.80;99.90;;;;;;5038351;28;20076;-72
2023/06/05 07:39:06;;;;;;;5.20;3.78;;;14.90;99.90;;;;;;5034547;28;20183;-71
2023/06/05 07:41:32;;;;;;;6.55;4.40;;;15.00;99.90;;;;;;5022044;28;20129;-71
2023/06/05 07:43:58;;;;;;;5.25;4.40;;;15.10;99.90;;;;;;5026415;28;20152;-72
2023/06/05 07:46:24;;;;;;;6.10;4.07;;;15.20;99.90;;;;;;5034084;28;20049;-72
2023/06/05 07:48:49;;;;;;;5.63;4.18;;;15.20;99.90;;;;;;5023159;28;20060;-71
2023/06/05 07:51:18;;;;;;;10.88;4.10;;;15.40;99.90;;;;;;5021520;28;20131;-71
2023/06/05 07:53:44;;;;;;;8.25;4.35;;;15.50;99.90;;;;;;4990258;28;20692;-72
2023/06/05 07:56:11;;;;;;;6.25;3.95;;;15.50;99.90;;;;;;5043810;28;20079;-71
2023/06/05 07:58:39;;;;;;;7.75;4.10;;;15.70;99.90;;;;;;5008699;28;20558;-71
2023/06/05 08:01:06;;;;;;;4.70;3.80;;;15.70;99.90;;;;;;5042189;28;20512;-71
2023/06/05 08:03:32;;;;;;;5.50;4.03;;;15.70;99.90;;;;;;5023496;28;20053;-71
2023/06/05 08:05:58;;;;;;;5.75;3.80;;;15.70;99.90;;;;;;5042525;28;20049;-72
2023/06/05 08:08:24;;;;;;;5.05;3.83;;;15.80;99.90;;;;;;5036811;28;20082;-71
2023/06/05 08:10:51;;;;;;;4.28;3.45;;;15.90;99.90;;;;;;5014568;28;20033;-71
2023/06/05 08:13:16;;;;;;;6.18;3.60;;;15.90;99.90;;;;;;5006495;28;20045;-71
2023/06/05 08:15:42;;;;;;;4.63;3.22;;;15.80;99.90;;;;;;5007729;28;20055;-71
2023/06/05 08:18:08;;;;;;;4.20;3.10;;;16.00;99.90;;;;;;5021633;28;20128;-72
2023/06/05 08:20:34;;;;;;;7.38;3.90;;;16.00;99.90;;;;;;5020399;28;20127;-71
2023/06/05 08:23:01;;;;;;;6.00;3.42;;;16.00;99.90;;;;;;5038743;28;20033;-71
2023/06/05 08:25:27;;;;;;;3.60;3.00;;;16.20;99.90;;;;;;5036533;28;20099;-72
2023/06/05 08:27:53;;;;;;;3.95;3.55;;;16.20;99.90;;;;;;4990737;28;20065;-71
2023/06/05 08:30:19;;;;;;;4.22;3.45;;;16.20;99.90;;;;;;5033952;28;20132;-72
2023/06/05 08:32:45;;;;;;;3.72;3.38;;;16.40;99.90;;;;;;5006622;28;20134;-71
2023/06/05 08:35:12;;;;;;;6.65;3.95;;;16.50;99.90;;;;;;5001601;28;20049;-71
2023/06/05 08:37:38;;;;;;;6.30;4.20;;;16.50;99.90;;;;;;5023099;28;20492;-72
2023/06/05 08:40:10;;;;;;;5.57;3.88;;;16.50;99.90;;;;;;5035217;28;20104;-71
2023/06/05 08:42:40;;;;;;;4.20;3.80;;;16.50;99.90;;;;;;5018807;28;20850;-71
2023/06/05 08:45:08;;;;;;;7.57;3.70;;;16.60;99.90;;;;;;5043553;28;20068;-72
2023/06/05 08:47:37;;;;;;;6.40;3.63;;;16.60;99.90;;;;;;5041055;28;20053;-71
2023/06/05 08:50:05;;;;;;;5.28;3.70;;;16.70;99.90;;;;;;5041186;28;20060;-71
2023/06/05 08:52:37;;;;;;;7.65;3.70;;;16.80;99.90;;;;;;5022475;28;20259;-71
2023/06/05 08:55:07;;;;;;;;;;;16.90;99.90;;;;;;5017297;28;20427;-72
2023/06/05 08:57:40;;;;;;;3.88;3.10;;;16.80;99.90;;;;;;5023954;28;19956;-72
2023/06/05 09:00:10;;;;;;;4.07;3.10;;;17.00;99.90;;;;;;5017124;28;20079;-71
2023/06/05 09:02:48;;;;;;;3.65;3.17;;;17.00;99.90;;;;;;5020468;28;20041;-72
2023/06/05 09:05:14;;;;;;;4.72;3.33;;;16.90;99.90;;;;;;5036729;28;20067;-71
2023/06/05 09:07:41;;;;;;;6.07;3.97;;;17.00;99.90;;;;;;5033352;28;20050;-71
2023/06/05 09:10:20;;;;;;;4.10;3.08;;;17.10;99.90;;;;;;5034371;28;20045;-71
2023/06/05 09:13:01;;;;;;;7.68;3.90;;;17.10;99.90;;;;;;5000726;28;20053;-71
2023/06/05 09:15:28;;;;;;;4.88;3.50;;;17.20;99.90;;;;;;5020195;28;21060;-72
2023/06/05 09:18:10;;;;;;;5.30;3.35;;;17.20;99.90;;;;;;5037793;28;20045;-71
2023/06/05 09:20:40;;;;;;;;;;;17.40;99.90;;;;;;5038834;28;20586;-71
2023/06/05 09:23:27;;;;;;;6.10;4.15;;;17.50;99.90;;;;;;5037231;28;20391;-72
2023/06/05 09:25:54;;;;;;;9.65;4.22;;;17.90;99.90;;;;;;5040389;28;20449;-71
2023/06/05 09:28:20;;;;;;;12.38;3.70;;;17.70;99.90;;;;;;5005664;28;20104;-72
2023/06/05 09:31:01;;;;;;;4.25;3.55;;;17.60;99.90;;;;;;5000980;28;20128;-72
2023/06/05 09:33:32;;;;;;;3.67;3.38;;;17.60;99.90;;;;;;5041327;28;20058;-71
2023/06/05 09:36:08;;;;;;;8.57;3.55;;;17.70;99.90;;;;;;5044051;28;20084;-71
2023/06/05 09:38:34;;;;;;;5.07;3.40;;;17.90;99.90;;;;;;5020308;28;20105;-71
2023/06/05 09:41:05;;;;;;;3.88;2.88;;;18.00;99.90;;;;;;5041524;28;20063;-71
2023/06/05 09:43:30;;;;;;;3.83;3.47;;;18.10;99.90;;;;;;5041456;28;20040;-72
2023/06/05 09:45:56;;;;;;;4.45;3.50;;;18.20;99.90;;;;;;5010590;28;21246;-71
2023/06/05 09:48:22;;;;;;;3.95;3.55;;;18.30;99.90;;;;;;5022003;28;20053;-72
2023/06/05 09:50:48;;;;;;;6.53;3.80;;;18.30;99.90;;;;;;5006907;28;20048;-72
2023/06/05 09:53:20;;;;;;;6.05;3.70;;;18.50;99.90;;;;;;5012599;28;20041;-72
2023/06/05 09:55:45;;;;;;;;;;;18.70;99.90;;;;;;5049590;28;20041;-71
2023/06/05 09:58:13;;;;;;;4.55;3.63;;;18.60;99.90;;;;;;5021444;28;19929;-71
2023/06/05 10:00:41;;;;;;;4.55;3.53;;;18.50;99.90;;;;;;5036050;28;20077;-71
2023/06/05 10:03:17;;;;;;;4.25;3.25;;;18.60;99.90;;;;;;5018965;28;20400;-71
2023/06/05 10:05:44;;;;;;;6.75;4.25;;;18.60;99.90;;;;;;5025105;28;20567;-80
2023/06/05 10:08:13;;;;;;;7.18;3.75;;;18.80;99.90;;;;;;5002982;28;21046;-70
2023/06/05 10:10:39;;;;;;;4.90;3.70;;;18.90;99.90;;;;;;5042500;28;20044;-70
2023/06/05 10:13:05;;;;;;;4.10;3.45;;;18.80;99.90;;;;;;5021464;28;20041;-70
2023/06/05 10:15:32;;;;;;;5.50;3.67;;;19.00;99.90;;;;;;5041509;28;20503;-70
2023/06/05 10:17:59;;;;;;;4.72;4.22;;;19.10;99.90;;;;;;5038631;28;20128;-70
2023/06/05 10:20:25;;;;;;;6.10;4.10;;;18.80;99.90;;;;;;5047708;28;20493;-70
2023/06/05 10:22:51;;;;;;;5.55;3.50;;;18.80;99.90;;;;;;5047585;28;20403;-69
2023/06/05 10:25:19;;;;;;;7.68;4.00;;;18.80;99.90;;;;;;5030630;28;20063;-70
2023/06/05 10:27:54;;;;;;;6.35;3.67;;;18.80;99.90;;;;;;5037421;28;20204;-71
2023/06/05 10:30:47;;;;;;;5.28;3.60;;;19.10;99.90;;;;;;5055278;28;20048;-69
2023/06/05 10:33:25;;;;;;;4.82;3.60;;;19.10;99.90;;;;;;5049352;28;20088;-70
2023/06/05 10:36:13;;;;;;;3.75;3.40;;;19.30;99.90;;;;;;5034317;28;20053;-71
2023/06/05 10:38:40;;;;;;;7.78;4.30;;;19.50;99.90;;;;;;5038398;28;20072;-70
2023/06/05 10:41:06;;;;;;;4.97;3.63;;;19.40;99.90;;;;;;5019177;28;20045;-70
2023/06/05 10:43:37;;;;;;;4.10;3.70;;;19.20;99.90;;;;;;5013568;28;20108;-70
2023/06/05 10:46:39;;;;;;;5.20;3.83;;;19.40;99.90;;;;;;5051353;28;20057;-69
2023/06/05 10:49:12;;;;;;;7.35;3.90;;;19.60;99.90;;;;;;4994731;28;20054;-70
2023/06/05 10:51:40;;;;;;;4.88;3.72;;;19.90;99.90;;;;;;5045481;28;20056;-70
2023/06/05 10:54:07;;;;;;;5.13;4.07;;;20.10;99.90;;;;;;5043580;28;20055;-71
2023/06/05 10:56:52;;;;;;;4.97;3.90;;;19.80;99.90;;;;;;5055793;28;20052;-71
2023/06/05 10:59:20;;;;;;;5.50;3.63;;;19.90;99.90;;;;;;5049231;28;20100;-70
2023/06/05 11:02:06;;;;;;;4.25;3.40;;;19.70;99.90;;;;;;5056808;28;20036;-70
2023/06/05 11:04:47;;;;;;;6.95;3.63;;;19.60;99.90;;;;;;5036846;28;20056;-70
2023/06/05 11:07:22;;;;;;;5.20;4.03;;;19.70;99.90;;;;;;5036678;28;20094;-70
2023/06/05 11:10:06;;;;;;;5.28;3.58;;;19.60;99.90;;;;;;5034470;28;20076;-70
2023/06/05 11:12:35;;;;;;;4.60;3.78;;;19.70;99.90;;;;;;5036834;28;20570;-70
2023/06/05 11:15:01;;;;;;;4.45;3.15;;;19.80;99.90;;;;;;5037870;28;20963;-69
2023/06/05 11:17:42;;;;;;;5.00;3.45;;;19.80;99.90;;;;;;5020272;28;20053;-70
2023/06/05 11:20:11;;;;;;;4.72;3.42;;;19.70;99.90;;;;;;5053314;28;20124;-70
2023/06/05 11:23:03;;;;;;;5.00;3.22;;;19.80;99.90;;;;;;5038037;28;20381;-71
2023/06/05 11:25:32;;;;;;;5.55;3.33;;;20.00;99.90;;;;;;5038652;28;20056;-70
2023/06/05 11:28:05;;;;;;;6.32;3.97;;;20.10;99.90;;;;;;5056333;28;20041;-70
2023/06/05 11:30:32;;;;;;;5.80;2.90;;;20.00;99.90;;;;;;5053898;28;20039;-70
2023/06/05 11:33:14;;;;;;;3.80;3.33;;;20.20;99.90;;;;;;5055103;28;20041;-70
2023/06/05 11:35:43;;;;;;;6.30;3.50;;;20.40;99.90;;;;;;5055503;28;20082;-70
2023/06/05 11:38:17;;;;;;;3.70;3.17;;;20.50;99.90;;;;;;5047569;28;20053;-70
2023/06/05 11:40:44;;;;;;;3.83;3.42;;;20.50;99.90;;;;;;5055629;28;20041;-70
2023/06/05 11:43:11;;;;;;;4.28;3.67;;;20.50;99.90;;;;;;5055110;28;20084;-70
2023/06/05 11:45:39;;;;;;;4.05;3.28;;;20.50;99.90;;;;;;5037938;28;20045;-70
2023/06/05 11:48:08;;;;;;;5.72;3.30;;;20.60;99.90;;;;;;5055330;28;20093;-70
2023/06/05 11:50:35;;;;;;;5.35;3.80;;;20.60;99.90;;;;;;5037013;28;20049;-70
2023/06/05 11:53:08;;;;;;;5.43;3.40;;;20.70;99.90;;;;;;5056450;28;20508;-69
2023/06/05 11:55:53;;;;;;;4.60;3.17;;;20.70;99.90;;;;;;5053605;28;20053;-70
2023/06/05 11:58:22;;;;;;;3.88;3.35;;;20.60;99.90;;;;;;5054859;28;20053;-70
2023/06/05 12:00:48;;;;;;;4.32;3.30;;;20.50;99.90;;;;;;5056239;28;20072;-70
2023/06/05 12:03:20;;;;;;;7.97;3.30;;;20.60;99.90;;;;;;5052286;28;20040;-70
2023/06/05 12:05:48;;;;;;;4.63;3.45;;;20.60;99.90;;;;;;5044045;28;20063;-70
2023/06/05 12:08:32;;;;;;;3.97;3.55;;;20.60;99.90;;;;;;5050320;28;20084;-71
2023/06/05 12:10:58;;;;;;;4.63;3.40;;;20.60;99.90;;;;;;5055589;28;20119;-70
2023/06/05 12:13:51;;;;;;;3.92;2.70;;;20.50;99.90;;;;;;5048277;28;20123;-84
2023/06/05 12:16:31;;;;;;;5.13;3.80;;;20.90;99.90;;;;;;5037547;28;20059;-70
2023/06/05 12:18:57;;;;;;;5.25;4.22;;;20.90;99.90;;;;;;5032813;28;20080;-70
2023/06/05 12:21:24;;;;;;;4.57;3.40;;;20.90;99.90;;;;;;5036250;28;20045;-71
2023/06/05 12:23:50;;;;;;;6.43;3.60;;;21.10;99.90;;;;;;5070009;22;20048;-79
2023/06/05 12:26:17;;;;;;;6.45;3.50;;;21.30;99.90;;;;;;5016008;28;20485;-79
2023/06/05 12:28:44;;;;;;;3.20;2.90;;;21.40;99.90;;;;;;5021376;28;20128;-80
2023/06/05 12:31:11;;;;;;;5.78;3.20;;;21.40;99.90;;;;;;5017338;28;20033;-79
2023/06/05 12:33:47;;;;;;;4.78;3.40;;;21.30;99.90;;;;;;5033662;28;20108;-79
2023/06/05 12:36:13;;;;;;;3.70;3.40;;;21.30;99.90;;;;;;5017736;28;20131;-79
2023/06/05 12:38:41;;;;;;;5.53;4.22;;;21.20;99.90;;;;;;5030692;28;20121;-80
2023/06/05 12:41:10;;;;;;;4.85;3.38;;;21.20;99.90;;;;;;5017227;28;20480;-80
2023/06/05 12:43:36;;;;;;;4.00;3.03;;;21.20;99.90;;;;;;5033423;28;20082;-79
2023/06/05 12:46:02;;;;;;;4.95;3.67;;;21.30;99.90;;;;;;5033823;28;20068;-79
2023/06/05 12:48:28;;;;;;;5.00;3.63;;;21.40;99.90;;;;;;5035350;28;20041;-78
2023/06/05 12:50:55;;;;;;;4.75;3.40;;;21.50;99.90;;;;;;5037226;28;20041;-79